sensor_id;sensor_type;location;lat;lon;timestamp;P1;durP1;ratioP1;P2;durP2;ratioP2
30519;SDS011;17300;50.374;8.006;2023-08-31T00:00:41;2.23;;;1.47;;
30519;SDS011;17300;50.374;8.006;2023-08-31T00:03:09;1.47;;;1.33;;
30519;SDS011;17300;50.374;8.006;2023-08-31T00:05:36;4.03;;;1.87;;
30519;SDS011;17300;50.374;8.006;2023-08-31T00:08:05;2.27;;;1.60;;
30519;SDS011;17300;50.374;8.006;2023-08-31T00:10:32;1.90;;;1.60;;
30519;SDS011;17300;50.374;8.006;2023-08-31T00:13:00;3.17;;;1.47;;
30519;SDS011;17300;50.374;8.006;2023-08-31T00:15:26;1.33;;;1.23;;
30519;SDS011;17300;50.374;8.006;2023-08-31T00:17:55;1.83;;;1.67;;
30519;SDS011;17300;50.374;8.006;2023-08-31T00:20:21;3.10;;;1.60;;
30519;SDS011;17300;50.374;8.006;2023-08-31T00:22:48;2.17;;;1.63;;
30519;SDS011;17300;50.374;8.006;2023-08-31T00:25:15;1.50;;;1.40;;
30519;SDS011;17300;50.374;8.006;2023-08-31T00:27:42;1.90;;;1.50;;
30519;SDS011;17300;50.374;8.006;2023-08-31T00:30:12;1.73;;;1.47;;
30519;SDS011;17300;50.374;8.006;2023-08-31T00:32:39;2.10;;;1.63;;
30519;SDS011;17300;50.374;8.006;2023-08-31T00:35:09;1.67;;;1.50;;
30519;SDS011;17300;50.374;8.006;2023-08-31T00:37:35;2.23;;;1.60;;
30519;SDS011;17300;50.374;8.006;2023-08-31T00:40:03;1.83;;;1.57;;
30519;SDS011;17300;50.374;8.006;2023-08-31T00:42:32;2.17;;;1.70;;
30519;SDS011;17300;50.374;8.006;2023-08-31T00:44:58;2.97;;;1.70;;
30519;SDS011;17300;50.374;8.006;2023-08-31T00:47:25;2.00;;;1.53;;
30519;SDS011;17300;50.374;8.006;2023-08-31T00:49:52;2.07;;;1.70;;
30519;SDS011;17300;50.374;8.006;2023-08-31T00:52:20;1.90;;;1.70;;
30519;SDS011;17300;50.374;8.006;2023-08-31T00:54:47;2.07;;;1.80;;
30519;SDS011;17300;50.374;8.006;2023-08-31T00:57:17;2.30;;;1.90;;
30519;SDS011;17300;50.374;8.006;2023-08-31T00:59:43;1.80;;;1.67;;
30519;SDS011;17300;50.374;8.006;2023-08-31T01:02:11;1.77;;;1.67;;
30519;SDS011;17300;50.374;8.006;2023-08-31T01:04:46;4.70;;;1.90;;
30519;SDS011;17300;50.374;8.006;2023-08-31T01:07:22;1.60;;;1.50;;
30519;SDS011;17300;50.374;8.006;2023-08-31T01:09:57;2.77;;;1.73;;
30519;SDS011;17300;50.374;8.006;2023-08-31T01:12:33;1.97;;;1.77;;
30519;SDS011;17300;50.374;8.006;2023-08-31T01:15:06;1.93;;;1.70;;
30519;SDS011;17300;50.374;8.006;2023-08-31T01:17:39;2.43;;;1.70;;
30519;SDS011;17300;50.374;8.006;2023-08-31T01:20:08;4.40;;;1.80;;
30519;SDS011;17300;50.374;8.006;2023-08-31T01:22:39;1.97;;;1.70;;
30519;SDS011;17300;50.374;8.006;2023-08-31T01:25:14;2.10;;;1.70;;
30519;SDS011;17300;50.374;8.006;2023-08-31T01:27:42;2.80;;;1.80;;
30519;SDS011;17300;50.374;8.006;2023-08-31T01:30:09;2.87;;;1.57;;
30519;SDS011;17300;50.374;8.006;2023-08-31T01:32:36;2.47;;;2.10;;
30519;SDS011;17300;50.374;8.006;2023-08-31T01:35:03;2.20;;;1.90;;
30519;SDS011;17300;50.374;8.006;2023-08-31T01:37:34;2.00;;;1.80;;
30519;SDS011;17300;50.374;8.006;2023-08-31T01:40:08;1.83;;;1.73;;
30519;SDS011;17300;50.374;8.006;2023-08-31T01:42:41;2.63;;;1.77;;
30519;SDS011;17300;50.374;8.006;2023-08-31T01:45:09;2.30;;;1.90;;
30519;SDS011;17300;50.374;8.006;2023-08-31T01:47:40;1.97;;;1.83;;
30519;SDS011;17300;50.374;8.006;2023-08-31T01:50:07;1.60;;;1.50;;
30519;SDS011;17300;50.374;8.006;2023-08-31T01:52:34;5.27;;;1.83;;
30519;SDS011;17300;50.374;8.006;2023-08-31T01:55:01;1.80;;;1.70;;
30519;SDS011;17300;50.374;8.006;2023-08-31T01:57:28;5.60;;;2.23;;
30519;SDS011;17300;50.374;8.006;2023-08-31T01:59:56;2.20;;;1.60;;
30519;SDS011;17300;50.374;8.006;2023-08-31T02:02:22;2.07;;;1.83;;
30519;SDS011;17300;50.374;8.006;2023-08-31T02:04:49;2.47;;;1.87;;
30519;SDS011;17300;50.374;8.006;2023-08-31T02:07:16;2.20;;;2.00;;
30519;SDS011;17300;50.374;8.006;2023-08-31T02:09:44;2.17;;;1.97;;
30519;SDS011;17300;50.374;8.006;2023-08-31T02:12:10;2.10;;;1.80;;
30519;SDS011;17300;50.374;8.006;2023-08-31T02:14:37;2.40;;;2.20;;
30519;SDS011;17300;50.374;8.006;2023-08-31T02:17:05;2.10;;;1.90;;
30519;SDS011;17300;50.374;8.006;2023-08-31T02:19:32;2.40;;;2.13;;
30519;SDS011;17300;50.374;8.006;2023-08-31T02:21:59;4.27;;;2.20;;
30519;SDS011;17300;50.374;8.006;2023-08-31T02:24:25;2.10;;;1.83;;
30519;SDS011;17300;50.374;8.006;2023-08-31T02:26:52;1.90;;;1.80;;
30519;SDS011;17300;50.374;8.006;2023-08-31T02:29:18;2.67;;;2.00;;
30519;SDS011;17300;50.374;8.006;2023-08-31T02:31:45;1.93;;;1.83;;
30519;SDS011;17300;50.374;8.006;2023-08-31T02:34:13;2.83;;;2.00;;
30519;SDS011;17300;50.374;8.006;2023-08-31T02:36:40;2.40;;;2.20;;
30519;SDS011;17300;50.374;8.006;2023-08-31T02:39:06;2.27;;;2.07;;
30519;SDS011;17300;50.374;8.006;2023-08-31T02:41:34;1.90;;;1.80;;
30519;SDS011;17300;50.374;8.006;2023-08-31T02:44:00;1.90;;;1.80;;
30519;SDS011;17300;50.374;8.006;2023-08-31T02:46:27;2.07;;;1.93;;
30519;SDS011;17300;50.374;8.006;2023-08-31T02:48:54;3.13;;;2.20;;
30519;SDS011;17300;50.374;8.006;2023-08-31T02:51:22;3.50;;;2.13;;
30519;SDS011;17300;50.374;8.006;2023-08-31T02:53:49;2.43;;;2.23;;
30519;SDS011;17300;50.374;8.006;2023-08-31T02:56:17;2.37;;;2.17;;
30519;SDS011;17300;50.374;8.006;2023-08-31T02:58:44;2.33;;;2.10;;
30519;SDS011;17300;50.374;8.006;2023-08-31T03:01:11;5.53;;;2.53;;
30519;SDS011;17300;50.374;8.006;2023-08-31T03:03:38;2.10;;;2.00;;
30519;SDS011;17300;50.374;8.006;2023-08-31T03:06:05;2.43;;;2.23;;
30519;SDS011;17300;50.374;8.006;2023-08-31T03:08:34;2.17;;;1.97;;
30519;SDS011;17300;50.374;8.006;2023-08-31T03:11:02;2.47;;;2.27;;
30519;SDS011;17300;50.374;8.006;2023-08-31T03:13:29;3.53;;;2.27;;
30519;SDS011;17300;50.374;8.006;2023-08-31T03:15:56;2.10;;;1.90;;
30519;SDS011;17300;50.374;8.006;2023-08-31T03:18:23;2.43;;;2.00;;
30519;SDS011;17300;50.374;8.006;2023-08-31T03:20:50;2.33;;;2.13;;
30519;SDS011;17300;50.374;8.006;2023-08-31T03:23:17;3.87;;;2.13;;
30519;SDS011;17300;50.374;8.006;2023-08-31T03:25:45;2.40;;;2.20;;
30519;SDS011;17300;50.374;8.006;2023-08-31T03:28:11;2.50;;;2.30;;
30519;SDS011;17300;50.374;8.006;2023-08-31T03:30:38;2.40;;;2.20;;
30519;SDS011;17300;50.374;8.006;2023-08-31T03:33:05;2.57;;;2.10;;
30519;SDS011;17300;50.374;8.006;2023-08-31T03:35:32;2.53;;;1.80;;
30519;SDS011;17300;50.374;8.006;2023-08-31T03:37:58;7.63;;;2.40;;
30519;SDS011;17300;50.374;8.006;2023-08-31T03:40:25;2.57;;;2.20;;
30519;SDS011;17300;50.374;8.006;2023-08-31T03:42:53;2.20;;;2.00;;
30519;SDS011;17300;50.374;8.006;2023-08-31T03:45:20;2.53;;;2.10;;
30519;SDS011;17300;50.374;8.006;2023-08-31T03:47:47;2.70;;;2.27;;
30519;SDS011;17300;50.374;8.006;2023-08-31T03:50:13;2.77;;;2.20;;
30519;SDS011;17300;50.374;8.006;2023-08-31T03:52:40;2.13;;;1.93;;
30519;SDS011;17300;50.374;8.006;2023-08-31T03:55:07;2.70;;;2.30;;
30519;SDS011;17300;50.374;8.006;2023-08-31T03:57:33;2.23;;;2.03;;
30519;SDS011;17300;50.374;8.006;2023-08-31T04:00:01;2.20;;;2.00;;
30519;SDS011;17300;50.374;8.006;2023-08-31T04:02:33;3.63;;;2.10;;
30519;SDS011;17300;50.374;8.006;2023-08-31T04:05:00;2.20;;;2.00;;
30519;SDS011;17300;50.374;8.006;2023-08-31T04:07:30;4.70;;;1.80;;
30519;SDS011;17300;50.374;8.006;2023-08-31T04:09:57;2.00;;;1.63;;
30519;SDS011;17300;50.374;8.006;2023-08-31T04:12:23;2.13;;;1.93;;
30519;SDS011;17300;50.374;8.006;2023-08-31T04:14:50;2.53;;;2.00;;
30519;SDS011;17300;50.374;8.006;2023-08-31T04:17:18;2.30;;;2.10;;
30519;SDS011;17300;50.374;8.006;2023-08-31T04:19:44;2.10;;;1.90;;
30519;SDS011;17300;50.374;8.006;2023-08-31T04:22:11;2.07;;;1.97;;
30519;SDS011;17300;50.374;8.006;2023-08-31T04:24:38;2.30;;;2.10;;
30519;SDS011;17300;50.374;8.006;2023-08-31T04:27:04;2.20;;;2.00;;
30519;SDS011;17300;50.374;8.006;2023-08-31T04:29:30;2.53;;;2.00;;
30519;SDS011;17300;50.374;8.006;2023-08-31T04:31:57;2.20;;;2.00;;
30519;SDS011;17300;50.374;8.006;2023-08-31T04:34:25;1.80;;;1.70;;
30519;SDS011;17300;50.374;8.006;2023-08-31T04:36:52;1.83;;;1.73;;
30519;SDS011;17300;50.374;8.006;2023-08-31T04:39:19;2.00;;;1.90;;
30519;SDS011;17300;50.374;8.006;2023-08-31T04:41:46;2.37;;;1.77;;
30519;SDS011;17300;50.374;8.006;2023-08-31T04:44:12;1.70;;;1.60;;
30519;SDS011;17300;50.374;8.006;2023-08-31T04:46:39;1.87;;;1.73;;
30519;SDS011;17300;50.374;8.006;2023-08-31T04:49:06;2.00;;;1.90;;
30519;SDS011;17300;50.374;8.006;2023-08-31T04:51:35;2.77;;;1.73;;
30519;SDS011;17300;50.374;8.006;2023-08-31T04:54:04;1.80;;;1.57;;
30519;SDS011;17300;50.374;8.006;2023-08-31T04:56:31;2.20;;;2.00;;
30519;SDS011;17300;50.374;8.006;2023-08-31T04:58:59;2.17;;;1.90;;
30519;SDS011;17300;50.374;8.006;2023-08-31T05:01:26;2.10;;;1.90;;
30519;SDS011;17300;50.374;8.006;2023-08-31T05:03:53;1.60;;;1.50;;
30519;SDS011;17300;50.374;8.006;2023-08-31T05:06:19;1.80;;;1.70;;
30519;SDS011;17300;50.374;8.006;2023-08-31T05:08:48;4.30;;;3.90;;
30519;SDS011;17300;50.374;8.006;2023-08-31T05:11:14;2.90;;;2.57;;
30519;SDS011;17300;50.374;8.006;2023-08-31T05:13:41;2.67;;;2.20;;
30519;SDS011;17300;50.374;8.006;2023-08-31T05:16:08;2.00;;;1.90;;
30519;SDS011;17300;50.374;8.006;2023-08-31T05:18:35;1.63;;;1.53;;
30519;SDS011;17300;50.374;8.006;2023-08-31T05:21:02;3.23;;;2.20;;
30519;SDS011;17300;50.374;8.006;2023-08-31T05:23:29;1.73;;;1.63;;
30519;SDS011;17300;50.374;8.006;2023-08-31T05:25:57;2.43;;;1.77;;
30519;SDS011;17300;50.374;8.006;2023-08-31T05:28:26;1.67;;;1.57;;
30519;SDS011;17300;50.374;8.006;2023-08-31T05:30:54;1.77;;;1.67;;
30519;SDS011;17300;50.374;8.006;2023-08-31T05:33:23;1.53;;;1.43;;
30519;SDS011;17300;50.374;8.006;2023-08-31T05:35:50;2.30;;;1.60;;
30519;SDS011;17300;50.374;8.006;2023-08-31T05:38:17;2.13;;;1.50;;
30519;SDS011;17300;50.374;8.006;2023-08-31T05:40:44;1.80;;;1.70;;
30519;SDS011;17300;50.374;8.006;2023-08-31T05:43:12;2.03;;;1.80;;
30519;SDS011;17300;50.374;8.006;2023-08-31T05:45:39;1.73;;;1.53;;
30519;SDS011;17300;50.374;8.006;2023-08-31T05:48:07;1.90;;;1.73;;
30519;SDS011;17300;50.374;8.006;2023-08-31T05:50:34;1.60;;;1.50;;
30519;SDS011;17300;50.374;8.006;2023-08-31T05:53:01;1.60;;;1.50;;
30519;SDS011;17300;50.374;8.006;2023-08-31T05:55:28;2.90;;;1.60;;
30519;SDS011;17300;50.374;8.006;2023-08-31T05:57:55;1.73;;;1.50;;
30519;SDS011;17300;50.374;8.006;2023-08-31T06:00:23;1.57;;;1.47;;
30519;SDS011;17300;50.374;8.006;2023-08-31T06:02:50;1.50;;;1.37;;
30519;SDS011;17300;50.374;8.006;2023-08-31T06:05:17;1.47;;;1.30;;
30519;SDS011;17300;50.374;8.006;2023-08-31T06:07:44;1.53;;;1.43;;
30519;SDS011;17300;50.374;8.006;2023-08-31T06:10:11;2.10;;;1.43;;
30519;SDS011;17300;50.374;8.006;2023-08-31T06:12:40;1.50;;;1.40;;
30519;SDS011;17300;50.374;8.006;2023-08-31T06:15:07;1.63;;;1.50;;
30519;SDS011;17300;50.374;8.006;2023-08-31T06:17:38;2.70;;;1.67;;
30519;SDS011;17300;50.374;8.006;2023-08-31T06:20:05;1.40;;;1.30;;
30519;SDS011;17300;50.374;8.006;2023-08-31T06:22:33;1.83;;;1.20;;
30519;SDS011;17300;50.374;8.006;2023-08-31T06:25:00;1.73;;;1.40;;
30519;SDS011;17300;50.374;8.006;2023-08-31T06:27:28;1.77;;;1.53;;
30519;SDS011;17300;50.374;8.006;2023-08-31T06:29:54;2.23;;;1.60;;
30519;SDS011;17300;50.374;8.006;2023-08-31T06:32:21;1.47;;;1.20;;
30519;SDS011;17300;50.374;8.006;2023-08-31T06:34:49;2.17;;;1.50;;
30519;SDS011;17300;50.374;8.006;2023-08-31T06:37:16;2.37;;;1.50;;
30519;SDS011;17300;50.374;8.006;2023-08-31T06:39:42;2.43;;;1.40;;
30519;SDS011;17300;50.374;8.006;2023-08-31T06:42:09;2.58;;;1.50;;
30519;SDS011;17300;50.374;8.006;2023-08-31T06:47:22;2.10;;;1.30;;
30519;SDS011;17300;50.374;8.006;2023-08-31T06:49:50;1.90;;;1.30;;
30519;SDS011;17300;50.374;8.006;2023-08-31T06:52:17;1.55;;;1.30;;
30519;SDS011;17300;50.374;8.006;2023-08-31T06:54:44;1.20;;;1.05;;
30519;SDS011;17300;50.374;8.006;2023-08-31T06:57:11;2.22;;;1.25;;
30519;SDS011;17300;50.374;8.006;2023-08-31T06:59:38;1.45;;;1.25;;
30519;SDS011;17300;50.374;8.006;2023-08-31T07:02:05;1.63;;;1.02;;
30519;SDS011;17300;50.374;8.006;2023-08-31T07:04:32;1.25;;;1.15;;
30519;SDS011;17300;50.374;8.006;2023-08-31T07:07:00;1.10;;;1.00;;
30519;SDS011;17300;50.374;8.006;2023-08-31T07:09:27;1.50;;;1.35;;
30519;SDS011;17300;50.374;8.006;2023-08-31T07:11:53;2.65;;;1.17;;
30519;SDS011;17300;50.374;8.006;2023-08-31T07:14:20;1.30;;;1.10;;
30519;SDS011;17300;50.374;8.006;2023-08-31T07:16:46;1.23;;;1.10;;
30519;SDS011;17300;50.374;8.006;2023-08-31T07:19:13;2.08;;;1.10;;
30519;SDS011;17300;50.374;8.006;2023-08-31T07:21:40;1.30;;;1.20;;
30519;SDS011;17300;50.374;8.006;2023-08-31T07:24:08;1.23;;;1.13;;
30519;SDS011;17300;50.374;8.006;2023-08-31T07:26:35;3.20;;;1.17;;
30519;SDS011;17300;50.374;8.006;2023-08-31T07:29:01;1.45;;;1.02;;
30519;SDS011;17300;50.374;8.006;2023-08-31T07:31:29;2.03;;;1.10;;
30519;SDS011;17300;50.374;8.006;2023-08-31T07:33:56;1.35;;;1.02;;
30519;SDS011;17300;50.374;8.006;2023-08-31T07:36:23;1.10;;;1.00;;
30519;SDS011;17300;50.374;8.006;2023-08-31T07:38:50;1.85;;;1.10;;
30519;SDS011;17300;50.374;8.006;2023-08-31T07:41:18;2.22;;;1.05;;
30519;SDS011;17300;50.374;8.006;2023-08-31T07:43:45;1.85;;;1.38;;
30519;SDS011;17300;50.374;8.006;2023-08-31T07:46:12;1.70;;;1.48;;
30519;SDS011;17300;50.374;8.006;2023-08-31T07:48:38;1.50;;;1.30;;
30519;SDS011;17300;50.374;8.006;2023-08-31T07:51:05;1.52;;;1.20;;
30519;SDS011;17300;50.374;8.006;2023-08-31T07:53:32;1.75;;;1.30;;
30519;SDS011;17300;50.374;8.006;2023-08-31T07:55:58;2.10;;;1.10;;
30519;SDS011;17300;50.374;8.006;2023-08-31T07:58:26;1.20;;;1.10;;
30519;SDS011;17300;50.374;8.006;2023-08-31T08:00:53;1.45;;;1.30;;
30519;SDS011;17300;50.374;8.006;2023-08-31T08:03:20;1.30;;;1.10;;
30519;SDS011;17300;50.374;8.006;2023-08-31T08:05:47;1.85;;;1.10;;
30519;SDS011;17300;50.374;8.006;2023-08-31T08:08:14;1.05;;;0.95;;
30519;SDS011;17300;50.374;8.006;2023-08-31T08:10:40;1.63;;;1.23;;
30519;SDS011;17300;50.374;8.006;2023-08-31T08:13:08;1.52;;;1.10;;
30519;SDS011;17300;50.374;8.006;2023-08-31T08:15:37;1.33;;;1.00;;
30519;SDS011;17300;50.374;8.006;2023-08-31T08:18:04;1.27;;;0.93;;
30519;SDS011;17300;50.374;8.006;2023-08-31T08:20:31;1.77;;;1.17;;
30519;SDS011;17300;50.374;8.006;2023-08-31T08:22:57;1.20;;;1.00;;
30519;SDS011;17300;50.374;8.006;2023-08-31T08:25:24;0.93;;;0.82;;
30519;SDS011;17300;50.374;8.006;2023-08-31T08:27:51;2.40;;;1.20;;
30519;SDS011;17300;50.374;8.006;2023-08-31T08:30:18;1.50;;;1.20;;
30519;SDS011;17300;50.374;8.006;2023-08-31T08:32:46;2.67;;;1.20;;
30519;SDS011;17300;50.374;8.006;2023-08-31T08:35:13;1.73;;;1.05;;
30519;SDS011;17300;50.374;8.006;2023-08-31T08:37:40;1.02;;;0.93;;
30519;SDS011;17300;50.374;8.006;2023-08-31T08:40:07;1.50;;;1.05;;
30519;SDS011;17300;50.374;8.006;2023-08-31T08:42:36;3.72;;;1.30;;
30519;SDS011;17300;50.374;8.006;2023-08-31T08:45:07;1.13;;;1.02;;
30519;SDS011;17300;50.374;8.006;2023-08-31T08:47:38;1.48;;;1.00;;
30519;SDS011;17300;50.374;8.006;2023-08-31T08:50:08;1.15;;;0.88;;
30519;SDS011;17300;50.374;8.006;2023-08-31T08:52:36;1.15;;;1.00;;
30519;SDS011;17300;50.374;8.006;2023-08-31T08:55:03;1.70;;;0.95;;
30519;SDS011;17300;50.374;8.006;2023-08-31T08:57:30;2.65;;;1.20;;
30519;SDS011;17300;50.374;8.006;2023-08-31T08:59:57;1.67;;;1.00;;
30519;SDS011;17300;50.374;8.006;2023-08-31T09:02:24;1.65;;;1.00;;
30519;SDS011;17300;50.374;8.006;2023-08-31T09:04:51;1.27;;;0.88;;
30519;SDS011;17300;50.374;8.006;2023-08-31T09:07:20;2.38;;;1.00;;
30519;SDS011;17300;50.374;8.006;2023-08-31T09:09:48;1.77;;;1.00;;
30519;SDS011;17300;50.374;8.006;2023-08-31T09:12:16;1.23;;;0.85;;
30519;SDS011;17300;50.374;8.006;2023-08-31T09:14:42;1.60;;;1.10;;
30519;SDS011;17300;50.374;8.006;2023-08-31T09:17:09;1.75;;;1.00;;
30519;SDS011;17300;50.374;8.006;2023-08-31T09:19:36;1.70;;;0.93;;
30519;SDS011;17300;50.374;8.006;2023-08-31T09:22:02;2.20;;;1.08;;
30519;SDS011;17300;50.374;8.006;2023-08-31T09:24:36;1.13;;;0.80;;
30519;SDS011;17300;50.374;8.006;2023-08-31T09:27:06;1.63;;;0.85;;
30519;SDS011;17300;50.374;8.006;2023-08-31T09:29:34;1.85;;;1.30;;
30519;SDS011;17300;50.374;8.006;2023-08-31T09:32:04;1.17;;;1.00;;
30519;SDS011;17300;50.374;8.006;2023-08-31T09:34:32;1.10;;;1.00;;
30519;SDS011;17300;50.374;8.006;2023-08-31T09:37:03;1.00;;;0.90;;
30519;SDS011;17300;50.374;8.006;2023-08-31T09:39:36;1.63;;;0.93;;
30519;SDS011;17300;50.374;8.006;2023-08-31T09:42:03;1.30;;;1.00;;
30519;SDS011;17300;50.374;8.006;2023-08-31T09:44:30;2.45;;;1.23;;
30519;SDS011;17300;50.374;8.006;2023-08-31T09:46:57;1.20;;;0.85;;
30519;SDS011;17300;50.374;8.006;2023-08-31T09:49:24;1.02;;;0.93;;
30519;SDS011;17300;50.374;8.006;2023-08-31T09:51:51;1.23;;;1.10;;
30519;SDS011;17300;50.374;8.006;2023-08-31T09:54:19;1.33;;;1.00;;
30519;SDS011;17300;50.374;8.006;2023-08-31T09:56:49;1.30;;;1.00;;
30519;SDS011;17300;50.374;8.006;2023-08-31T09:59:16;1.65;;;0.90;;
30519;SDS011;17300;50.374;8.006;2023-08-31T10:01:44;1.15;;;1.02;;
30519;SDS011;17300;50.374;8.006;2023-08-31T10:04:11;1.67;;;1.10;;
30519;SDS011;17300;50.374;8.006;2023-08-31T10:06:39;1.63;;;1.02;;
30519;SDS011;17300;50.374;8.006;2023-08-31T10:09:06;1.13;;;1.02;;
30519;SDS011;17300;50.374;8.006;2023-08-31T10:11:35;1.20;;;1.00;;
30519;SDS011;17300;50.374;8.006;2023-08-31T10:14:05;3.40;;;1.15;;
30519;SDS011;17300;50.374;8.006;2023-08-31T10:16:32;1.30;;;1.13;;
30519;SDS011;17300;50.374;8.006;2023-08-31T10:18:59;1.65;;;1.08;;
30519;SDS011;17300;50.374;8.006;2023-08-31T10:21:25;2.40;;;0.98;;
30519;SDS011;17300;50.374;8.006;2023-08-31T10:23:52;1.13;;;0.98;;
30519;SDS011;17300;50.374;8.006;2023-08-31T10:26:25;1.73;;;1.40;;
30519;SDS011;17300;50.374;8.006;2023-08-31T10:28:52;1.20;;;1.10;;
30519;SDS011;17300;50.374;8.006;2023-08-31T10:31:21;1.45;;;0.95;;
30519;SDS011;17300;50.374;8.006;2023-08-31T10:33:54;1.13;;;0.98;;
30519;SDS011;17300;50.374;8.006;2023-08-31T10:36:34;1.15;;;0.93;;
30519;SDS011;17300;50.374;8.006;2023-08-31T10:39:04;1.55;;;1.00;;
30519;SDS011;17300;50.374;8.006;2023-08-31T10:41:33;1.02;;;0.93;;
30519;SDS011;17300;50.374;8.006;2023-08-31T10:44:01;1.30;;;1.10;;
30519;SDS011;17300;50.374;8.006;2023-08-31T10:46:30;1.15;;;1.00;;
30519;SDS011;17300;50.374;8.006;2023-08-31T10:48:58;1.38;;;0.98;;
30519;SDS011;17300;50.374;8.006;2023-08-31T10:51:26;1.65;;;1.00;;
30519;SDS011;17300;50.374;8.006;2023-08-31T10:54:04;2.42;;;1.10;;
30519;SDS011;17300;50.374;8.006;2023-08-31T10:56:32;1.20;;;1.00;;
30519;SDS011;17300;50.374;8.006;2023-08-31T10:58:59;0.77;;;0.73;;
30519;SDS011;17300;50.374;8.006;2023-08-31T11:04:19;1.67;;;1.08;;
30519;SDS011;17300;50.374;8.006;2023-08-31T11:06:45;2.15;;;1.10;;
30519;SDS011;17300;50.374;8.006;2023-08-31T11:09:17;1.30;;;1.00;;
30519;SDS011;17300;50.374;8.006;2023-08-31T11:11:45;2.17;;;1.05;;
30519;SDS011;17300;50.374;8.006;2023-08-31T11:14:12;1.85;;;1.15;;
30519;SDS011;17300;50.374;8.006;2023-08-31T11:16:38;1.35;;;1.13;;
30519;SDS011;17300;50.374;8.006;2023-08-31T11:19:07;2.58;;;1.00;;
30519;SDS011;17300;50.374;8.006;2023-08-31T11:21:35;1.48;;;1.05;;
30519;SDS011;17300;50.374;8.006;2023-08-31T11:24:03;1.15;;;1.00;;
30519;SDS011;17300;50.374;8.006;2023-08-31T11:26:31;1.23;;;0.90;;
30519;SDS011;17300;50.374;8.006;2023-08-31T11:28:58;1.05;;;0.90;;
30519;SDS011;17300;50.374;8.006;2023-08-31T11:31:25;1.65;;;1.05;;
30519;SDS011;17300;50.374;8.006;2023-08-31T11:33:53;0.98;;;0.85;;
30519;SDS011;17300;50.374;8.006;2023-08-31T11:36:22;1.75;;;1.00;;
30519;SDS011;17300;50.374;8.006;2023-08-31T11:38:50;1.35;;;1.13;;
30519;SDS011;17300;50.374;8.006;2023-08-31T11:41:17;1.35;;;1.10;;
30519;SDS011;17300;50.374;8.006;2023-08-31T11:43:43;1.50;;;1.08;;
30519;SDS011;17300;50.374;8.006;2023-08-31T11:46:10;1.85;;;1.02;;
30519;SDS011;17300;50.374;8.006;2023-08-31T11:48:37;2.50;;;1.25;;
30519;SDS011;17300;50.374;8.006;2023-08-31T11:51:05;1.55;;;1.13;;
30519;SDS011;17300;50.374;8.006;2023-08-31T11:53:34;1.40;;;1.10;;
30519;SDS011;17300;50.374;8.006;2023-08-31T11:56:01;1.20;;;1.10;;
30519;SDS011;17300;50.374;8.006;2023-08-31T11:58:28;1.75;;;0.98;;
30519;SDS011;17300;50.374;8.006;2023-08-31T12:00:56;1.10;;;1.00;;
30519;SDS011;17300;50.374;8.006;2023-08-31T12:03:24;1.10;;;1.00;;
30519;SDS011;17300;50.374;8.006;2023-08-31T12:05:52;1.27;;;0.90;;
30519;SDS011;17300;50.374;8.006;2023-08-31T12:08:25;1.33;;;1.05;;
30519;SDS011;17300;50.374;8.006;2023-08-31T12:10:54;1.15;;;1.05;;
30519;SDS011;17300;50.374;8.006;2023-08-31T12:13:21;1.20;;;1.02;;
30519;SDS011;17300;50.374;8.006;2023-08-31T12:15:52;1.10;;;1.00;;
30519;SDS011;17300;50.374;8.006;2023-08-31T12:18:19;1.13;;;1.02;;
30519;SDS011;17300;50.374;8.006;2023-08-31T12:20:46;1.35;;;1.15;;
30519;SDS011;17300;50.374;8.006;2023-08-31T12:23:15;1.10;;;0.95;;
30519;SDS011;17300;50.374;8.006;2023-08-31T12:25:46;1.52;;;1.00;;
30519;SDS011;17300;50.374;8.006;2023-08-31T12:28:16;1.52;;;1.08;;
30519;SDS011;17300;50.374;8.006;2023-08-31T12:30:46;1.35;;;1.20;;
30519;SDS011;17300;50.374;8.006;2023-08-31T12:33:14;2.08;;;1.20;;
30519;SDS011;17300;50.374;8.006;2023-08-31T12:35:41;1.63;;;1.42;;
30519;SDS011;17300;50.374;8.006;2023-08-31T12:38:07;1.30;;;1.00;;
30519;SDS011;17300;50.374;8.006;2023-08-31T12:40:34;1.20;;;1.10;;
30519;SDS011;17300;50.374;8.006;2023-08-31T12:43:00;1.13;;;1.02;;
30519;SDS011;17300;50.374;8.006;2023-08-31T12:45:29;1.58;;;1.27;;
30519;SDS011;17300;50.374;8.006;2023-08-31T12:47:56;2.03;;;1.10;;
30519;SDS011;17300;50.374;8.006;2023-08-31T12:50:23;1.20;;;0.98;;
30519;SDS011;17300;50.374;8.006;2023-08-31T12:52:50;1.80;;;1.10;;
30519;SDS011;17300;50.374;8.006;2023-08-31T12:55:16;1.30;;;1.20;;
30519;SDS011;17300;50.374;8.006;2023-08-31T12:57:43;1.40;;;1.17;;
30519;SDS011;17300;50.374;8.006;2023-08-31T13:00:10;1.20;;;1.00;;
30519;SDS011;17300;50.374;8.006;2023-08-31T13:02:40;1.77;;;1.05;;
30519;SDS011;17300;50.374;8.006;2023-08-31T13:05:08;1.67;;;1.10;;
30519;SDS011;17300;50.374;8.006;2023-08-31T13:07:35;1.33;;;1.23;;
30519;SDS011;17300;50.374;8.006;2023-08-31T13:10:03;1.20;;;1.10;;
30519;SDS011;17300;50.374;8.006;2023-08-31T13:12:31;1.63;;;1.20;;
30519;SDS011;17300;50.374;8.006;2023-08-31T13:14:58;1.77;;;1.02;;
30519;SDS011;17300;50.374;8.006;2023-08-31T13:17:25;1.88;;;1.00;;
30519;SDS011;17300;50.374;8.006;2023-08-31T13:19:53;1.17;;;1.10;;
30519;SDS011;17300;50.374;8.006;2023-08-31T13:22:20;1.20;;;0.95;;
30519;SDS011;17300;50.374;8.006;2023-08-31T13:24:47;1.30;;;1.20;;
30519;SDS011;17300;50.374;8.006;2023-08-31T13:27:15;1.55;;;1.05;;
30519;SDS011;17300;50.374;8.006;2023-08-31T13:29:41;0.93;;;0.90;;
30519;SDS011;17300;50.374;8.006;2023-08-31T13:32:08;1.30;;;1.05;;
30519;SDS011;17300;50.374;8.006;2023-08-31T13:34:35;1.60;;;1.20;;
30519;SDS011;17300;50.374;8.006;2023-08-31T13:37:04;1.25;;;1.15;;
30519;SDS011;17300;50.374;8.006;2023-08-31T13:39:31;1.50;;;1.08;;
30519;SDS011;17300;50.374;8.006;2023-08-31T13:42:00;1.20;;;1.00;;
30519;SDS011;17300;50.374;8.006;2023-08-31T13:44:28;1.33;;;1.08;;
30519;SDS011;17300;50.374;8.006;2023-08-31T13:46:55;1.27;;;1.00;;
30519;SDS011;17300;50.374;8.006;2023-08-31T13:49:22;1.77;;;1.08;;
30519;SDS011;17300;50.374;8.006;2023-08-31T13:51:48;1.10;;;1.00;;
30519;SDS011;17300;50.374;8.006;2023-08-31T13:54:16;1.38;;;1.05;;
30519;SDS011;17300;50.374;8.006;2023-08-31T13:56:43;1.55;;;1.20;;
30519;SDS011;17300;50.374;8.006;2023-08-31T13:59:10;2.22;;;1.20;;
30519;SDS011;17300;50.374;8.006;2023-08-31T14:01:37;1.55;;;1.02;;
30519;SDS011;17300;50.374;8.006;2023-08-31T14:04:04;1.08;;;1.00;;
30519;SDS011;17300;50.374;8.006;2023-08-31T14:06:31;1.20;;;1.10;;
30519;SDS011;17300;50.374;8.006;2023-08-31T14:08:59;2.45;;;1.23;;
30519;SDS011;17300;50.374;8.006;2023-08-31T14:11:27;1.10;;;1.00;;
30519;SDS011;17300;50.374;8.006;2023-08-31T14:14:00;1.33;;;1.00;;
30519;SDS011;17300;50.374;8.006;2023-08-31T14:16:29;1.30;;;1.20;;
30519;SDS011;17300;50.374;8.006;2023-08-31T14:18:56;1.30;;;1.20;;
30519;SDS011;17300;50.374;8.006;2023-08-31T14:21:22;1.42;;;1.10;;
30519;SDS011;17300;50.374;8.006;2023-08-31T14:23:49;1.13;;;1.00;;
30519;SDS011;17300;50.374;8.006;2023-08-31T14:26:20;1.90;;;1.30;;
30519;SDS011;17300;50.374;8.006;2023-08-31T14:28:48;1.48;;;1.10;;
30519;SDS011;17300;50.374;8.006;2023-08-31T14:31:15;1.20;;;1.10;;
30519;SDS011;17300;50.374;8.006;2023-08-31T14:33:42;1.40;;;1.20;;
30519;SDS011;17300;50.374;8.006;2023-08-31T14:36:08;1.98;;;1.17;;
30519;SDS011;17300;50.374;8.006;2023-08-31T14:38:35;1.35;;;1.05;;
30519;SDS011;17300;50.374;8.006;2023-08-31T14:41:02;1.95;;;1.33;;
30519;SDS011;17300;50.374;8.006;2023-08-31T14:43:31;1.50;;;0.90;;
30519;SDS011;17300;50.374;8.006;2023-08-31T14:45:59;1.58;;;1.05;;
30519;SDS011;17300;50.374;8.006;2023-08-31T14:48:26;1.75;;;1.35;;
30519;SDS011;17300;50.374;8.006;2023-08-31T14:50:53;2.15;;;1.30;;
30519;SDS011;17300;50.374;8.006;2023-08-31T14:53:20;2.22;;;1.30;;
30519;SDS011;17300;50.374;8.006;2023-08-31T14:55:48;1.73;;;1.10;;